Terminal Aerodrome Forecast
Issued by NWS

Home | Current Version | Previous Version | Text Only | Print | Product List | Glossary On
Versions: 1 2 3 4 5 6 7 8 9 10 11 12 13
325
FTUS42 TJSJ 272324
TAFISX
TAF
TISX 272324Z 2800/2824 09005KT P6SM FEW025 SCT060
     FM280600 07004KT P6SM VCSH SCT025 SCT050
     FM281400 13012KT P6SM SCT030=

USA.gov is the U.S. government's official web portal to all federal, state and local government web resources and services.